Time;durP1;ratioP1;P1;durP2;ratioP2;P2;SDS_P1;SDS_P2;PMS_P1;PMS_P2;Temp;Humidity;BMP_temperature;BMP_pressure;BME280_temperature;BME280_humidity;BME280_pressure;Samples;Min_cycle;Max_cycle;Signal;HPM_P1;HPM_P2
2022/01/06 00:00:25;;;;;;;;;;;0.50;99.90;;;;;;5035783;28;20011;-72
2022/01/06 00:02:57;;;;;;;;;;;0.50;99.90;;;;;;5036543;28;20011;-72
2022/01/06 00:05:28;;;;;;;;;;;0.50;99.90;;;;;;5036672;28;19974;-72
2022/01/06 00:08:01;;;;;;;;;;;0.50;99.90;;;;;;5020023;28;20304;-73
2022/01/06 00:10:33;;;;;;;;;;;0.50;99.90;;;;;;5058016;28;20011;-73
2022/01/06 00:23:31;;;;;;;;;;;0.50;99.90;;;;;;5035083;28;20009;-72
2022/01/06 00:25:59;;;;;;;;;;;0.50;99.90;;;;;;5036037;28;20023;-73
2022/01/06 00:28:31;;;;;;;;;;;0.40;99.90;;;;;;5032626;28;20346;-73
2022/01/06 00:30:58;;;;;;;;;;;0.40;99.90;;;;;;5036045;28;19956;-72
2022/01/06 00:33:25;;;;;;;;;;;0.50;99.90;;;;;;5034813;28;20020;-72
2022/01/06 00:35:52;;;;;;;;;;;0.50;99.90;;;;;;5035874;28;20024;-72
2022/01/06 00:38:25;;;;;;;;;;;0.50;99.90;;;;;;5031448;28;20012;-72
2022/01/06 00:40:58;;;;;;;;;;;0.50;99.90;;;;;;5038891;28;19924;-72
2022/01/06 00:43:25;;;;;;;;;;;0.50;99.90;;;;;;5021229;28;20020;-73
2022/01/06 00:45:51;;;;;;;;;;;0.50;99.90;;;;;;5032737;28;19925;-72
2022/01/06 00:48:18;;;;;;;;;;;0.50;99.90;;;;;;5017576;28;19996;-72
2022/01/06 00:50:50;;;;;;;;;;;0.50;99.90;;;;;;5050366;28;19921;-72
2022/01/06 00:53:21;;;;;;;;;;;0.40;99.90;;;;;;5035335;28;19925;-72
2022/01/06 00:55:53;;;;;;;;;;;0.40;99.90;;;;;;5036480;28;20395;-72
2022/01/06 00:58:20;;;;;;;;;;;0.40;99.90;;;;;;5053107;28;19951;-72
2022/01/06 01:00:51;;;;;;;;;;;0.40;99.90;;;;;;5035292;28;19924;-72
2022/01/06 01:03:23;;;;;;;;;;;0.40;99.90;;;;;;5052928;28;20605;-72
2022/01/06 01:05:50;;;;;;;;;;;0.40;99.90;;;;;;5035204;28;20031;-72
2022/01/06 01:08:23;;;;;;;;;;;0.40;99.90;;;;;;5035774;28;19924;-72
2022/01/06 01:10:55;;;;;;;;;;;0.40;99.90;;;;;;5053058;28;19921;-72
2022/01/06 01:13:28;;;;;;;;;;;0.40;99.90;;;;;;5035320;28;19927;-72
2022/01/06 01:15:58;;;;;;;;;;;0.40;99.90;;;;;;5052958;28;20003;-71
2022/01/06 01:18:30;;;;;;;;;;;0.40;99.90;;;;;;5052815;28;20489;-72
2022/01/06 01:21:01;;;;;;;;;;;0.40;99.90;;;;;;5036052;28;20404;-72
2022/01/06 01:23:33;;;;;;;;;;;0.30;99.90;;;;;;5034468;28;19920;-72
2022/01/06 01:26:05;;;;;;;;;;;0.40;99.90;;;;;;5052612;28;20017;-72
2022/01/06 01:28:43;;;;;;;;;;;0.30;99.90;;;;;;5052475;28;20007;-72
2022/01/06 01:31:26;;;;;;;;;;;0.30;99.90;;;;;;5034732;28;20027;-73
2022/01/06 01:33:56;;;;;;;;;;;0.30;99.90;;;;;;5052071;28;19963;-72
2022/01/06 01:36:23;;;;;;;;;;;0.30;99.90;;;;;;5027014;28;20048;-72
2022/01/06 01:38:55;;;;;;;;;;;0.30;99.90;;;;;;5026767;28;19935;-72
2022/01/06 01:41:26;;;;;;;;;;;0.30;99.90;;;;;;5033042;28;19920;-71
2022/01/06 01:43:55;;;;;;;;;;;0.40;99.90;;;;;;5033958;28;20019;-71
2022/01/06 01:46:28;;;;;;;;;;;0.40;99.90;;;;;;5019608;28;19960;-71
2022/01/06 01:51:42;;;;;;;;;;;0.40;99.90;;;;;;5049801;28;19956;-72
2022/01/06 01:54:13;;;;;;;;;;;0.40;99.90;;;;;;5049407;28;19920;-72
2022/01/06 01:56:45;;;;;;;;;;;0.40;99.90;;;;;;5049523;28;19920;-72
2022/01/06 01:59:12;;;;;;;;;;;0.40;99.90;;;;;;5033954;28;19925;-72
2022/01/06 02:01:44;;;;;;;;;;;0.40;99.90;;;;;;5018136;28;20300;-71
2022/01/06 02:04:12;;;;;;;;;;;0.40;99.90;;;;;;5050932;28;20011;-72
2022/01/06 02:06:38;;;;;;;;;;;0.40;99.90;;;;;;5033679;28;20011;-72
2022/01/06 02:09:10;;;;;;;;;;;0.40;99.90;;;;;;5051410;28;20010;-72
2022/01/06 02:11:37;;;;;;;;;;;0.40;99.90;;;;;;5033525;28;19921;-72
2022/01/06 02:14:09;;;;;;;;;;;0.40;99.90;;;;;;5051578;28;19927;-72
2022/01/06 02:16:40;;;;;;;;;;;0.40;99.90;;;;;;5033863;28;19920;-72
2022/01/06 02:19:12;;;;;;;;;;;0.40;99.90;;;;;;5034546;28;19931;-72
2022/01/06 02:21:43;;;;;;;;;;;0.40;99.90;;;;;;5018305;28;19920;-72
2022/01/06 02:24:15;;;;;;;;;;;0.50;99.90;;;;;;5032979;28;19920;-72
2022/01/06 02:26:47;;;;;;;;;;;0.50;99.90;;;;;;5033195;28;20432;-72
2022/01/06 02:29:18;;;;;;;;;;;0.50;99.90;;;;;;5033169;28;20051;-72
2022/01/06 02:31:50;;;;;;;;;;;0.40;99.90;;;;;;5017542;28;19921;-72
2022/01/06 02:34:22;;;;;;;;;;;0.40;99.90;;;;;;5050791;28;19928;-71
2022/01/06 02:36:53;;;;;;;;;;;0.40;99.90;;;;;;5033697;28;20018;-72
2022/01/06 02:39:25;;;;;;;;;;;0.40;99.90;;;;;;5034331;28;19921;-72
2022/01/06 02:41:57;;;;;;;;;;;0.40;99.90;;;;;;5051518;28;19920;-72
2022/01/06 02:44:25;;;;;;;;;;;0.50;99.90;;;;;;5033084;28;20056;-71
2022/01/06 02:46:52;;;;;;;;;;;0.50;99.90;;;;;;5051294;28;20015;-72
2022/01/06 02:49:24;;;;;;;;;;;0.50;99.90;;;;;;5033198;28;19950;-72
2022/01/06 02:51:56;;;;;;;;;;;0.50;99.90;;;;;;5051377;28;19920;-72
2022/01/06 02:54:22;;;;;;;;;;;0.50;99.90;;;;;;5032976;28;19968;-72
2022/01/06 02:56:49;;;;;;;;;;;0.40;99.90;;;;;;5033363;28;20007;-72
2022/01/06 02:59:16;;;;;;;;;;;0.40;99.90;;;;;;5033557;28;20014;-72
2022/01/06 03:01:47;;;;;;;;;;;0.40;99.90;;;;;;5036404;28;19921;-72
2022/01/06 03:04:20;;;;;;;;;;;0.40;99.90;;;;;;5055025;28;19921;-73
2022/01/06 03:06:52;;;;;;;;;;;0.40;99.90;;;;;;5055349;28;19924;-72
2022/01/06 03:09:25;;;;;;;;;;;0.50;99.90;;;;;;5037490;28;19960;-72
2022/01/06 03:11:53;;;;;;;;;;;0.50;99.90;;;;;;5038217;28;20007;-72
2022/01/06 03:14:25;;;;;;;;;;;0.50;99.90;;;;;;5043093;28;19921;-72
2022/01/06 03:16:56;;;;;;;;;;;0.50;99.90;;;;;;5008680;28;20646;-72
2022/01/06 03:19:28;;;;;;;;;;;0.50;99.90;;;;;;5055235;28;19927;-72
2022/01/06 03:22:00;;;;;;;;;;;0.40;99.90;;;;;;5037542;28;20296;-72
2022/01/06 03:24:26;;;;;;;;;;;0.40;99.90;;;;;;5036812;28;20019;-72
2022/01/06 03:26:53;;;;;;;;;;;0.50;99.90;;;;;;5037136;28;19967;-72
2022/01/06 03:29:25;;;;;;;;;;;0.50;99.90;;;;;;5054846;28;19927;-72
2022/01/06 03:31:58;;;;;;;;;;;0.40;99.90;;;;;;5037142;28;19921;-72
2022/01/06 03:34:30;;;;;;;;;;;0.40;99.90;;;;;;5037430;28;19927;-72
2022/01/06 03:37:03;;;;;;;;;;;0.40;99.90;;;;;;5037108;28;19931;-72
2022/01/06 03:39:35;;;;;;;;;;;0.40;99.90;;;;;;5036620;28;19920;-71
2022/01/06 03:42:01;;;;;;;;;;;0.40;99.90;;;;;;5036754;28;19948;-72
2022/01/06 03:44:33;;;;;;;;;;;0.40;99.90;;;;;;5054436;28;20023;-72
2022/01/06 03:47:05;;;;;;;;;;;0.40;99.90;;;;;;5054524;28;19927;-72
2022/01/06 03:49:37;;;;;;;;;;;0.30;99.90;;;;;;5054645;28;20377;-73
2022/01/06 03:52:04;;;;;;;;;;;0.30;99.90;;;;;;5036785;28;20019;-72
2022/01/06 03:54:35;;;;;;;;;;;0.30;99.90;;;;;;5054178;28;19927;-72
2022/01/06 03:57:07;;;;;;;;;;;0.30;99.90;;;;;;5037665;28;19927;-72
2022/01/06 03:59:39;;;;;;;;;;;0.30;99.90;;;;;;5036429;28;20308;-73
2022/01/06 04:02:10;;;;;;;;;;;0.30;99.90;;;;;;5020761;28;19927;-72
2022/01/06 04:04:42;;;;;;;;;;;0.30;99.90;;;;;;5017505;28;20276;-72
2022/01/06 04:07:14;;;;;;;;;;;0.30;99.90;;;;;;5024770;28;20003;-72
2022/01/06 04:09:40;;;;;;;;;;;0.20;99.90;;;;;;5053957;28;19921;-72
2022/01/06 04:12:12;;;;;;;;;;;0.20;99.90;;;;;;5035205;28;19925;-72
2022/01/06 04:14:44;;;;;;;;;;;0.20;99.90;;;;;;5017214;28;19927;-72
2022/01/06 04:17:10;;;;;;;;;;;0.20;99.90;;;;;;5024207;28;19967;-72
2022/01/06 04:19:42;;;;;;;;;;;0.20;99.90;;;;;;5054145;28;19924;-73
2022/01/06 04:22:14;;;;;;;;;;;0.20;99.90;;;;;;5020423;28;19920;-72
2022/01/06 04:24:40;;;;;;;;;;;0.20;99.90;;;;;;5035885;28;19960;-73
2022/01/06 04:27:12;;;;;;;;;;;0.20;99.90;;;;;;5036028;28;20388;-72
2022/01/06 04:29:44;;;;;;;;;;;0.20;99.90;;;;;;5020218;28;19920;-72
2022/01/06 04:32:15;;;;;;;;;;;0.20;99.90;;;;;;5037833;28;20299;-72
2022/01/06 04:34:47;;;;;;;;;;;0.20;99.90;;;;;;5035829;28;19921;-73
2022/01/06 04:37:19;;;;;;;;;;;0.20;99.90;;;;;;5036618;28;19920;-72
2022/01/06 04:39:45;;;;;;;;;;;0.10;99.90;;;;;;5035216;28;20031;-72
2022/01/06 04:42:12;;;;;;;;;;;0.10;99.90;;;;;;5035626;28;20373;-72
2022/01/06 04:44:38;;;;;;;;;;;0.10;99.90;;;;;;5053177;28;19974;-72
2022/01/06 04:47:10;;;;;;;;;;;0.10;99.90;;;;;;5053404;28;19921;-72
2022/01/06 04:49:42;;;;;;;;;;;0.10;99.90;;;;;;5035181;28;19927;-72
2022/01/06 04:52:09;;;;;;;;;;;0.10;99.90;;;;;;5052749;28;20000;-72
2022/01/06 04:54:41;;;;;;;;;;;0.10;99.90;;;;;;5035563;28;20366;-72
2022/01/06 04:57:07;;;;;;;;;;;0.10;99.90;;;;;;5034900;28;20004;-72
2022/01/06 04:59:39;;;;;;;;;;;0.10;99.90;;;;;;5018960;28;19964;-72
2022/01/06 05:02:06;;;;;;;;;;;0.10;99.90;;;;;;5034678;28;19926;-72
2022/01/06 05:04:33;;;;;;;;;;;0.10;99.90;;;;;;5034047;28;20011;-72
2022/01/06 05:07:00;;;;;;;;;;;0.10;99.90;;;;;;5034829;28;20362;-72
2022/01/06 05:09:26;;;;;;;;;;;0.20;99.90;;;;;;5018142;28;20436;-72
2022/01/06 05:11:58;;;;;;;;;;;0.10;99.90;;;;;;5052552;28;19927;-72
2022/01/06 05:14:25;;;;;;;;;;;0.20;99.90;;;;;;5051876;28;20019;-72
2022/01/06 05:16:52;;;;;;;;;;;0.20;99.90;;;;;;5034487;28;20032;-72
2022/01/06 05:19:24;;;;;;;;;;;0.20;99.90;;;;;;5034544;28;20015;-72
2022/01/06 05:21:56;;;;;;;;;;;0.20;99.90;;;;;;5035500;28;19968;-72
2022/01/06 05:24:24;;;;;;;;;;;0.20;99.90;;;;;;5051794;28;20022;-72
2022/01/06 05:26:56;;;;;;;;;;;0.20;99.90;;;;;;5052245;28;19921;-72
2022/01/06 05:29:28;;;;;;;;;;;0.20;99.90;;;;;;5052102;28;19920;-72
2022/01/06 05:32:00;;;;;;;;;;;0.20;99.90;;;;;;5052374;28;20683;-72
2022/01/06 05:34:32;;;;;;;;;;;0.30;99.90;;;;;;5034344;28;20389;-72
2022/01/06 05:36:58;;;;;;;;;;;0.30;99.90;;;;;;5052775;28;20007;-72
2022/01/06 05:39:25;;;;;;;;;;;0.30;99.90;;;;;;5034500;28;19927;-72
2022/01/06 05:41:52;;;;;;;;;;;0.30;99.90;;;;;;5052252;28;19964;-72
2022/01/06 05:44:18;;;;;;;;;;;0.20;99.90;;;;;;5052171;28;19925;-72
2022/01/06 05:46:50;;;;;;;;;;;0.20;99.90;;;;;;5034115;28;20004;-72
2022/01/06 05:49:22;;;;;;;;;;;0.20;99.90;;;;;;5034505;28;20015;-72
2022/01/06 05:51:53;;;;;;;;;;;0.20;99.90;;;;;;5034468;28;19956;-72
2022/01/06 05:54:25;;;;;;;;;;;0.10;99.90;;;;;;5034941;28;19921;-72
2022/01/06 05:56:57;;;;;;;;;;;0.10;99.90;;;;;;5052343;28;20300;-72
2022/01/06 05:59:24;;;;;;;;;;;0.00;99.90;;;;;;5034543;28;20387;-72
2022/01/06 06:01:50;;;;;;;;;;;0.00;99.90;;;;;;5034300;28;20015;-72
2022/01/06 06:04:22;;;;;;;;;;;0.00;99.90;;;;;;5034558;28;19924;-72
2022/01/06 06:06:53;;;;;;;;;;;0.00;99.90;;;;;;5052126;28;20023;-72
2022/01/06 06:09:25;;;;;;;;;;;0.00;99.90;;;;;;5032996;28;19921;-72
2022/01/06 06:11:57;;;;;;;;;;;0.00;99.90;;;;;;5053615;28;20019;-72
2022/01/06 06:14:28;;;;;;;;;;;0.00;99.90;;;;;;5038770;28;19948;-72
2022/01/06 06:16:55;;;;;;;;;;;0.00;99.90;;;;;;5036676;28;20571;-72
2022/01/06 06:19:22;;;;;;;;;;;0.10;99.90;;;;;;5017898;28;20377;-72
2022/01/06 06:21:53;;;;;;;;;;;0.10;99.90;;;;;;5034826;28;20007;-72
2022/01/06 06:24:25;;;;;;;;;;;0.20;99.90;;;;;;5051395;28;20351;-72
2022/01/06 06:26:57;;;;;;;;;;;0.20;99.90;;;;;;5034761;28;20456;-72
2022/01/06 06:29:29;;;;;;;;;;;0.20;99.90;;;;;;5015654;28;20011;-72
2022/01/06 06:32:00;;;;;;;;;;;0.30;99.90;;;;;;5034584;28;20096;-72
2022/01/06 06:34:27;;;;;;;;;;;0.20;99.90;;;;;;5051113;28;19960;-72
2022/01/06 06:36:54;;;;;;;;;;;0.30;99.90;;;;;;5033332;28;19920;-72
2022/01/06 06:39:26;;;;;;;;;;;0.20;99.90;;;;;;5033691;28;20027;-72
2022/01/06 06:41:57;;;;;;;;;;;0.20;99.90;;;;;;5026358;28;19925;-72
2022/01/06 06:44:29;;;;;;;;;;;0.20;99.90;;;;;;5049770;28;20015;-72
2022/01/06 06:47:01;;;;;;;;;;;0.20;99.90;;;;;;5033205;28;20460;-72
2022/01/06 06:49:29;;;;;;;;;;;0.30;99.90;;;;;;5033412;28;19920;-73
2022/01/06 06:51:56;;;;;;;;;;;0.30;99.90;;;;;;5033181;28;20027;-73
2022/01/06 06:54:27;;;;;;;;;;;0.30;99.90;;;;;;5033168;28;19955;-73
2022/01/06 06:56:59;;;;;;;;;;;0.30;99.90;;;;;;5034252;28;19921;-73
2022/01/06 06:59:31;;;;;;;;;;;0.30;99.90;;;;;;5034505;28;19927;-72
2022/01/06 07:02:02;;;;;;;;;;;0.30;99.90;;;;;;5033272;28;19924;-73
2022/01/06 07:04:34;;;;;;;;;;;0.30;99.90;;;;;;5051029;28;19927;-73
2022/01/06 07:07:01;;;;;;;;;;;0.30;99.90;;;;;;5050863;28;19966;-72
2022/01/06 07:09:27;;;;;;;;;;;0.30;99.90;;;;;;5028038;28;19970;-72
2022/01/06 07:11:59;;;;;;;;;;;0.30;99.90;;;;;;5028682;28;20338;-72
2022/01/06 07:14:31;;;;;;;;;;;0.30;99.90;;;;;;5031430;28;20011;-73
2022/01/06 07:16:57;;;;;;;;;;;0.30;99.90;;;;;;5032426;28;20285;-72
2022/01/06 07:19:24;;;;;;;;;;;0.30;99.90;;;;;;5029883;28;20360;-73
2022/01/06 07:21:56;;;;;;;;;;;0.30;99.90;;;;;;5027881;28;19964;-73
2022/01/06 07:24:27;;;;;;;;;;;0.30;99.90;;;;;;5039312;28;19955;-72
2022/01/06 07:26:54;;;;;;;;;;;0.30;99.90;;;;;;5047196;28;19921;-72
2022/01/06 07:29:21;;;;;;;;;;;0.30;99.90;;;;;;5033626;28;20019;-72
2022/01/06 07:31:52;;;;;;;;;;;0.30;99.90;;;;;;5045288;28;20031;-72
2022/01/06 07:34:25;;;;;;;;;;;0.20;99.90;;;;;;5035394;28;19931;-72
2022/01/06 07:36:52;;;;;;;;;;;0.20;99.90;;;;;;5027954;28;20385;-72
2022/01/06 07:39:23;;;;;;;;;;;0.20;99.90;;;;;;5051338;28;19999;-73
2022/01/06 07:41:55;;;;;;;;;;;0.20;99.90;;;;;;5029725;28;20003;-72
2022/01/06 07:44:28;;;;;;;;;;;0.30;99.90;;;;;;5049533;28;19925;-73
2022/01/06 07:46:54;;;;;;;;;;;0.30;99.90;;;;;;5032413;28;20011;-73
2022/01/06 07:49:27;;;;;;;;;;;0.30;99.90;;;;;;5025147;28;19957;-72
2022/01/06 07:51:54;;;;;;;;;;;0.30;99.90;;;;;;5034382;28;19983;-71
2022/01/06 07:54:26;;;;;;;;;;;0.30;99.90;;;;;;5053221;28;19955;-73
2022/01/06 07:56:53;;;;;;;;;;;0.40;99.90;;;;;;5051592;28;20014;-73
2022/01/06 07:59:19;;;;;;;;;;;0.40;99.90;;;;;;5048516;28;19951;-72
2022/01/06 08:01:51;;;;;;;;;;;0.30;99.90;;;;;;5034267;28;20337;-72
2022/01/06 08:04:22;;;;;;;;;;;0.30;99.90;;;;;;5021526;28;20027;-72
2022/01/06 08:06:49;;;;;;;;;;;0.30;99.90;;;;;;5042977;28;19956;-72
2022/01/06 08:09:16;;;;;;;;;;;0.30;99.90;;;;;;5053243;28;19956;-72
2022/01/06 08:11:48;;;;;;;;;;;0.30;99.90;;;;;;5036296;28;19968;-72
2022/01/06 08:14:14;;;;;;;;;;;0.30;99.90;;;;;;5052329;28;19967;-71
2022/01/06 08:16:46;;;;;;;;;;;0.40;99.90;;;;;;5000529;28;19996;-72
2022/01/06 08:19:19;;;;;;;;;;;0.40;99.90;;;;;;5019981;28;19925;-71
2022/01/06 08:21:52;;;;;;;;;;;0.40;99.90;;;;;;5048974;28;19955;-72
2022/01/06 08:24:23;;;;;;;;;;;0.50;99.90;;;;;;5072959;28;20019;-72
2022/01/06 08:26:50;;;;;;;;;;;0.50;99.90;;;;;;5056163;28;20311;-72
2022/01/06 08:29:22;;;;;;;;;;;0.40;99.90;;;;;;5073813;28;19924;-73
2022/01/06 08:31:54;;;;;;;;;;;0.40;99.90;;;;;;5059930;28;20008;-72
2022/01/06 08:34:25;;;;;;;;;;;0.40;99.90;;;;;;5032266;28;19928;-72
2022/01/06 08:36:53;;;;;;;;;;;0.40;99.90;;;;;;5063552;28;19952;-72
2022/01/06 08:39:20;;;;;;;;;;;0.40;99.90;;;;;;5032523;28;20289;-72
2022/01/06 08:41:53;;;;;;;;;;;0.40;99.90;;;;;;5024636;28;19929;-72
2022/01/06 08:44:20;;;;;;;;;;;0.40;99.90;;;;;;5030199;28;20019;-72
2022/01/06 08:46:47;;;;;;;;;;;0.40;99.90;;;;;;5052507;28;20423;-72
2022/01/06 08:49:17;;;;;;;;;;;0.40;99.90;;;;;;5035532;28;19995;-72
2022/01/06 08:51:48;;;;;;;;;;;0.40;99.90;;;;;;5036220;28;20385;-72
2022/01/06 08:54:15;;;;;;;;;;;0.40;99.90;;;;;;5035324;28;20329;-72
2022/01/06 08:56:42;;;;;;;;;;;0.50;99.90;;;;;;5053513;28;20007;-72
2022/01/06 08:59:13;;;;;;;;;;;0.60;99.90;;;;;;5019294;28;19959;-73
2022/01/06 09:01:45;;;;;;;;;;;0.60;99.90;;;;;;5053187;28;19927;-72
2022/01/06 09:04:12;;;;;;;;;;;0.70;99.90;;;;;;5035016;28;19986;-72
2022/01/06 09:06:44;;;;;;;;;;;0.70;99.90;;;;;;5035220;28;19927;-73
2022/01/06 09:09:11;;;;;;;;;;;0.70;99.90;;;;;;5053039;28;20074;-73
2022/01/06 09:11:44;;;;;;;;;;;0.70;99.90;;;;;;5035042;28;19978;-72
2022/01/06 09:14:15;;;;;;;;;;;0.80;99.90;;;;;;5039571;28;19964;-72
2022/01/06 09:16:47;;;;;;;;;;;0.70;99.90;;;;;;5038105;28;19925;-73
2022/01/06 09:19:19;;;;;;;;;;;0.70;99.90;;;;;;5036117;28;19955;-72
2022/01/06 09:21:45;;;;;;;;;;;0.70;99.90;;;;;;5034892;28;20009;-73
2022/01/06 09:24:18;;;;;;;;;;;0.70;99.90;;;;;;5052004;28;20015;-73
2022/01/06 09:26:45;;;;;;;;;;;0.70;99.90;;;;;;5018382;28;20014;-72
2022/01/06 09:29:16;;;;;;;;;;;0.70;99.90;;;;;;5034439;28;19924;-73
2022/01/06 09:31:48;;;;;;;;;;;0.70;99.90;;;;;;5034677;28;20019;-73
2022/01/06 09:34:14;;;;;;;;;;;0.70;99.90;;;;;;5052103;28;20015;-72
2022/01/06 09:36:46;;;;;;;;;;;0.70;99.90;;;;;;5018485;28;20015;-73
2022/01/06 09:39:13;;;;;;;;;;;0.70;99.90;;;;;;5031151;28;19952;-73
2022/01/06 09:41:40;;;;;;;;;;;0.70;99.90;;;;;;5034645;28;19944;-73
2022/01/06 09:44:12;;;;;;;;;;;0.70;99.90;;;;;;5034085;28;19928;-73
2022/01/06 09:46:40;;;;;;;;;;;0.60;99.90;;;;;;5052366;28;19966;-73
2022/01/06 09:49:06;;;;;;;;;;;0.60;99.90;;;;;;5052149;28;19971;-72
2022/01/06 09:51:33;;;;;;;;;;;0.60;99.90;;;;;;5034445;28;19925;-73
2022/01/06 09:54:00;;;;;;;;;;;0.60;99.90;;;;;;5051592;28;20011;-72
2022/01/06 09:56:32;;;;;;;;;;;0.70;99.90;;;;;;5035054;28;20003;-73
2022/01/06 09:58:58;;;;;;;;;;;0.60;99.90;;;;;;5051834;28;20019;-73
2022/01/06 10:01:25;;;;;;;;;;;0.70;99.90;;;;;;5034089;28;20359;-73
2022/01/06 10:03:52;;;;;;;;;;;0.70;99.90;;;;;;5051587;28;19960;-73
2022/01/06 10:06:21;;;;;;;;;;;0.80;99.90;;;;;;5034386;28;20277;-73
2022/01/06 10:08:59;;;;;;;;;;;0.90;99.90;;;;;;5030717;28;20346;-73
2022/01/06 10:11:27;;;;;;;;;;;0.90;99.90;;;;;;5026414;28;20443;-73
2022/01/06 10:14:00;;;;;;;;;;;0.90;99.90;;;;;;5028306;28;19921;-73
2022/01/06 10:16:29;;;;;;;;;;;0.90;99.90;;;;;;5046722;28;19966;-73
2022/01/06 10:19:01;;;;;;;;;;;0.90;99.90;;;;;;5031333;28;20016;-74
2022/01/06 10:21:38;;;;;;;;;;;0.90;99.90;;;;;;5022585;28;19944;-73
2022/01/06 10:24:09;;;;;;;;;;;1.00;99.90;;;;;;5027960;28;20007;-73
2022/01/06 10:26:37;;;;;;;;;;;1.00;99.90;;;;;;5032822;28;19966;-73
2022/01/06 10:29:09;;;;;;;;;;;1.00;99.90;;;;;;5022712;28;19953;-73
2022/01/06 10:31:36;;;;;;;;;;;1.00;99.90;;;;;;5041054;28;19955;-73
2022/01/06 10:34:06;;;;;;;;;;;1.00;99.90;;;;;;5015221;28;19987;-73
2022/01/06 10:36:39;;;;;;;;;;;1.10;99.90;;;;;;5036243;28;20011;-73
2022/01/06 10:39:10;;;;;;;;;;;1.20;99.90;;;;;;5051560;28;19920;-73
2022/01/06 10:41:38;;;;;;;;;;;1.10;99.90;;;;;;5023542;28;20047;-73
2022/01/06 10:44:09;;;;;;;;;;;1.10;99.90;;;;;;5020340;28;19966;-72
2022/01/06 10:46:38;;;;;;;;;;;1.10;99.90;;;;;;5037940;28;20390;-72
2022/01/06 10:49:16;;;;;;;;;;;1.20;99.90;;;;;;5026643;28;19928;-73
2022/01/06 10:51:49;;;;;;;;;;;1.20;99.90;;;;;;5026390;28;19924;-73
2022/01/06 10:54:21;;;;;;;;;;;1.20;99.90;;;;;;5014277;28;20011;-72
2022/01/06 10:57:01;;;;;;;;;;;1.30;99.90;;;;;;5032410;28;19967;-73
2022/01/06 10:59:29;;;;;;;;;;;1.30;99.90;;;;;;5024725;28;19962;-73
2022/01/06 11:02:02;;;;;;;;;;;1.40;99.90;;;;;;5017167;28;20015;-73
2022/01/06 11:04:29;;;;;;;;;;;1.40;99.90;;;;;;5033677;28;19956;-72
2022/01/06 11:07:02;;;;;;;;;;;1.50;99.90;;;;;;5034659;28;19950;-72
2022/01/06 11:09:30;;;;;;;;;;;1.60;99.90;;;;;;5050267;28;20015;-72
2022/01/06 11:14:33;;;;;;;;;;;1.70;99.90;;;;;;5050055;28;20023;-72
2022/01/06 11:17:00;;;;;;;;;;;1.80;99.90;;;;;;5032325;28;19952;-72
2022/01/06 11:19:28;;;;;;;;;;;1.80;99.90;;;;;;5032745;28;20357;-72
2022/01/06 11:22:01;;;;;;;;;;;1.80;99.90;;;;;;5034102;28;19921;-72
2022/01/06 11:24:28;;;;;;;;;;;1.80;99.90;;;;;;5036104;28;19971;-72
2022/01/06 11:27:00;;;;;;;;;;;1.90;99.90;;;;;;5020683;28;20292;-73
2022/01/06 11:29:34;;;;;;;;;;;1.90;99.90;;;;;;5037093;28;19928;-72
2022/01/06 11:32:17;;;;;;;;;;;2.00;99.90;;;;;;5037588;28;20023;-72
2022/01/06 11:35:02;;;;;;;;;;;2.00;99.90;;;;;;5054375;28;19921;-72
2022/01/06 11:37:47;;;;;;;;;;;2.10;99.90;;;;;;5035904;28;20049;-72
2022/01/06 11:40:31;;;;;;;;;;;2.20;99.90;;;;;;5037373;28;19955;-72
2022/01/06 11:43:04;;;;;;;;;;;2.20;99.90;;;;;;5053452;28;19974;-72
2022/01/06 11:45:36;;;;;;;;;;;2.30;99.90;;;;;;5036893;28;20008;-72
2022/01/06 11:48:11;;;;;;;;;;;2.40;99.90;;;;;;5035906;28;20373;-72
2022/01/06 11:50:47;;;;;;;;;;;2.50;99.90;;;;;;5036225;28;19921;-72
2022/01/06 11:53:15;;;;;;;;;;;2.40;99.90;;;;;;5033635;28;20020;-72
2022/01/06 11:55:45;;;;;;;;;;;2.40;99.90;;;;;;5007931;28;20011;-72
2022/01/06 11:58:19;;;;;;;;;;;2.30;99.90;;;;;;5052643;28;20020;-72
2022/01/06 12:00:54;;;;;;;;;;;2.30;99.90;;;;;;5035792;28;19927;-72
2022/01/06 12:03:20;;;;;;;;;;;2.30;99.90;;;;;;5049926;28;19927;-72
2022/01/06 12:05:49;;;;;;;;;;;2.30;99.90;;;;;;5043986;28;19920;-72
2022/01/06 12:08:22;;;;;;;;;;;2.30;99.90;;;;;;5042795;28;20305;-72
2022/01/06 12:10:50;;;;;;;;;;;2.40;99.90;;;;;;5046600;28;19970;-72
2022/01/06 12:13:21;;;;;;;;;;;2.40;99.90;;;;;;5039915;28;19944;-72
2022/01/06 12:15:54;;;;;;;;;;;2.50;99.90;;;;;;5059707;28;19967;-72
2022/01/06 12:18:32;;;;;;;;;;;2.60;99.90;;;;;;5038139;28;20019;-72
2022/01/06 12:21:04;;;;;;;;;;;2.70;99.90;;;;;;5036428;28;19921;-72
2022/01/06 12:23:36;;;;;;;;;;;2.80;99.90;;;;;;5035249;28;19921;-72
2022/01/06 12:26:08;;;;;;;;;;;2.80;99.90;;;;;;5036553;28;19967;-72
2022/01/06 12:28:43;;;;;;;;;;;2.90;99.90;;;;;;5038507;28;20039;-72
2022/01/06 12:31:23;;;;;;;;;;;2.90;99.90;;;;;;5053489;28;19921;-72
2022/01/06 12:33:59;;;;;;;;;;;2.80;99.90;;;;;;5052204;28;19952;-73
2022/01/06 12:36:27;;;;;;;;;;;2.80;99.90;;;;;;5030458;28;20037;-72
2022/01/06 12:39:11;;;;;;;;;;;2.80;99.90;;;;;;5049521;28;20023;-72
2022/01/06 12:41:39;;;;;;;;;;;2.70;99.90;;;;;;5024756;28;20050;-72
2022/01/06 12:44:16;;;;;;;;;;;2.70;99.90;;;;;;5052414;28;20020;-73
2022/01/06 12:46:48;;;;;;;;;;;2.70;99.90;;;;;;5045617;28;20280;-72
2022/01/06 12:49:15;;;;;;;;;;;2.70;99.90;;;;;;5026206;28;19925;-72
2022/01/06 12:51:48;;;;;;;;;;;2.70;99.90;;;;;;5050382;28;20031;-72
2022/01/06 12:54:20;;;;;;;;;;;2.70;99.90;;;;;;5023254;28;19959;-72
2022/01/06 12:56:54;;;;;;;;;;;2.60;99.90;;;;;;5053427;28;19956;-72
2022/01/06 12:59:34;;;;;;;;;;;2.60;99.90;;;;;;5035548;28;19920;-72
2022/01/06 13:02:13;;;;;;;;;;;2.70;99.90;;;;;;5040215;28;19921;-72
2022/01/06 13:04:48;;;;;;;;;;;2.60;99.90;;;;;;5035063;28;20002;-72
2022/01/06 13:07:19;;;;;;;;;;;2.70;99.90;;;;;;5036141;28;19985;-72
2022/01/06 13:09:55;;;;;;;;;;;2.70;99.90;;;;;;5035933;28;20446;-72
2022/01/06 13:12:27;;;;;;;;;;;2.80;99.90;;;;;;5034886;28;20385;-72
2022/01/06 13:14:58;;;;;;;;;;;2.80;99.90;;;;;;5036101;28;19943;-72
2022/01/06 13:17:30;;;;;;;;;;;2.80;99.90;;;;;;5034780;28;19974;-72
2022/01/06 13:20:02;;;;;;;;;;;2.90;99.90;;;;;;5019534;28;19920;-73
2022/01/06 13:23:41;;;;;;;;;;;2.70;99.90;;;;;;5034493;28;19921;-72
2022/01/06 13:25:24;;;;;;;;;;;2.70;99.90;;;;;;5047228;28;20035;-72
2022/01/06 13:27:59;;;;;;;;;;;2.70;99.90;;;;;;5035048;28;20023;-72
2022/01/06 13:30:46;;;;;;;;;;;2.70;99.90;;;;;;5035280;28;19975;-72
2022/01/06 13:33:21;;;;;;;;;;;2.70;99.90;;;;;;5051659;28;20403;-72
2022/01/06 13:35:52;;;;;;;;;;;2.60;99.90;;;;;;5018451;28;19963;-72
2022/01/06 13:38:25;;;;;;;;;;;2.70;99.90;;;;;;5018757;28;20016;-72
2022/01/06 13:41:01;;;;;;;;;;;2.60;99.90;;;;;;5034892;28;19920;-72
2022/01/06 13:43:35;;;;;;;;;;;2.60;99.90;;;;;;5032102;28;19951;-72
2022/01/06 13:46:09;;;;;;;;;;;2.50;99.90;;;;;;5034232;28;19927;-72
2022/01/06 13:48:45;;;;;;;;;;;2.50;99.90;;;;;;5034321;28;20015;-72
2022/01/06 13:51:18;;;;;;;;;;;2.50;99.90;;;;;;5052246;28;19943;-72
2022/01/06 13:53:51;;;;;;;;;;;2.60;99.90;;;;;;5051412;28;20612;-72
2022/01/06 13:56:27;;;;;;;;;;;2.60;99.90;;;;;;5034427;28;19925;-73
2022/01/06 13:58:53;;;;;;;;;;;2.60;99.90;;;;;;5034463;28;20031;-73
2022/01/06 14:01:27;;;;;;;;;;;2.60;99.90;;;;;;5035196;28;19964;-72
2022/01/06 14:03:54;;;;;;;;;;;2.70;99.90;;;;;;5033775;28;19921;-73
2022/01/06 14:06:21;;;;;;;;;;;2.70;99.90;;;;;;5034085;28;19920;-73
2022/01/06 14:08:53;;;;;;;;;;;2.60;99.90;;;;;;5033555;28;20388;-72
2022/01/06 14:11:20;;;;;;;;;;;2.60;99.90;;;;;;5033227;28;20007;-72
2022/01/06 14:13:47;;;;;;;;;;;2.60;99.90;;;;;;5051707;28;19963;-72
2022/01/06 14:16:19;;;;;;;;;;;2.60;99.90;;;;;;5033712;28;20003;-72
2022/01/06 14:18:51;;;;;;;;;;;2.60;99.90;;;;;;5051882;28;20011;-72
2022/01/06 14:21:17;;;;;;;;;;;2.60;99.90;;;;;;5033951;28;19975;-72
2022/01/06 14:23:49;;;;;;;;;;;2.60;99.90;;;;;;5034355;28;20019;-72
2022/01/06 14:26:21;;;;;;;;;;;2.60;99.90;;;;;;5034022;28;20472;-73
2022/01/06 14:28:54;;;;;;;;;;;2.60;99.90;;;;;;5033548;28;20004;-72
2022/01/06 14:31:20;;;;;;;;;;;2.50;99.90;;;;;;5033302;28;19974;-72
2022/01/06 14:33:47;;;;;;;;;;;2.50;99.90;;;;;;5033207;28;20023;-73
2022/01/06 14:36:20;;;;;;;;;;;2.50;99.90;;;;;;5033518;28;20011;-72
2022/01/06 14:38:52;;;;;;;;;;;2.50;99.90;;;;;;5034020;28;20040;-72
2022/01/06 14:41:19;;;;;;;;;;;2.50;99.90;;;;;;5033648;28;19928;-72
2022/01/06 14:43:50;;;;;;;;;;;2.50;99.90;;;;;;5032869;28;19929;-72
2022/01/06 14:46:17;;;;;;;;;;;2.50;99.90;;;;;;5033593;28;20004;-72
2022/01/06 14:48:49;;;;;;;;;;;2.50;99.90;;;;;;5050925;28;20023;-73
2022/01/06 14:51:21;;;;;;;;;;;2.50;99.90;;;;;;5033166;28;19967;-72
2022/01/06 14:53:53;;;;;;;;;;;2.40;99.90;;;;;;5047353;28;19927;-73
2022/01/06 14:56:24;;;;;;;;;;;2.30;99.90;;;;;;5024128;28;20270;-72
2022/01/06 14:58:51;;;;;;;;;;;2.20;99.90;;;;;;5037990;28;20015;-73
2022/01/06 15:01:18;;;;;;;;;;;2.10;99.90;;;;;;5033797;28;19920;-72
2022/01/06 15:03:49;;;;;;;;;;;2.00;99.90;;;;;;5033017;28;20015;-73
2022/01/06 15:06:16;;;;;;;;;;;1.90;99.90;;;;;;5033173;28;20301;-73